KSLN/SLN METAR and TAF weather

Enter ICAO airport designator
Station Type Date Time Source
KSLN METAR 2019/08/24 19:53 UTC NOAA

KSLN 241953Z 12011KT 10SM FEW022 OVC050 26/20 A2999 RMK AO2 SLP142 T02560200


Station Type Date Time Source
KSLN Decoded METAR 2019/08/24 19:53 UTC NOAA

Station name not available
Aug 24, 2019 - 03:53 PM EDT / 2019.08.24 1953 UTC
Wind: from the ESE (120 degrees) at 13 MPH (11 KT):0
Visibility: 10 mile(s):0
Sky conditions: overcast
Temperature: 78.1 F (25.6 C)
Dew Point: 68.0 F (20.0 C)
Relative Humidity: 71%
Pressure (altimeter): 29.99 in. Hg (1015 hPa)
ob: KSLN 241953Z 12011KT 10SM FEW022 OVC050 26/20 A2999 RMK AO2 SLP142 T02560200
cycle: 20

Station Type Date Time Source
KSLN TAF 2019/08/24 19:57 UTC NOAA

TAF
AMD KSLN 241854Z 2419/2518 12011KT P6SM BKN020 OVC035
TEMPO 2503/2507 VRB25G45KT 1SM +TSRA BR OVC025CB
FM250700 12011KT 4SM -TSRA BR OVC030CB
FM251100 VRB05KT P6SM OVC010

Example: see airport list